Kosmos — WDC9987 — position and weather

sailwx.info

Track history (hours):
 
Tides and Currents Weather Stations Pressure Air Temp Water Temp Dewpoint Dewpoint Depression Visibility Wind Speed Wind Dir Waves Ship Positions

Kosmos

Owner: Grab, Eric W, San Diego, CA. More information available from US FCC via Universal Licensing System and Coast Guard Vessel Documentation Center.

Last reported at 2017-Nov-26 22:07 UTC. Time now 2017-Dec-12 00:26 UTC.
Position N 37°37' W 122°18'.
Warning: this ship's position is 15 days out of date.

Length 13 m.

Type: Pleasure craft. MMSI: 367109510.

Date/timePositionNaut miles runAvg speedWind from/ knotsBaromVisibWave heightAir tempDewpointWater temp
2017-Nov-26 22:07N 37°37' W 122°18'1 7.4
2017-Nov-26 22:00N 37°38' W 122°18'4 7.4
2017-Nov-26 21:30N 37°41' W 122°20'4 7.2
2017-Nov-26 21:00N 37°45' W 122°21'3 6.8
2017-Nov-26 20:30N 37°48' W 122°21'1 1.5
2017-Nov-26 19:52N 37°49' W 122°22'0 0.0
2017-Nov-26 19:28N 37°49' W 122°22'0 0.0
2017-Nov-26 18:58N 37°49' W 122°22'0 0.0
2017-Nov-26 18:28N 37°49' W 122°22'0 0.0
2017-Nov-26 17:55N 37°49' W 122°22'0 0.0
2017-Nov-26 17:28N 37°49' W 122°22'0 0.0
2017-Nov-26 16:58N 37°49' W 122°22'0 0.0
2017-Nov-26 16:28N 37°49' W 122°22'0 0.0
2017-Nov-25 23:55N 37°49' W 122°22'0 0.2
2017-Nov-25 23:29N 37°49' W 122°22'0 0.0
2017-Nov-25 22:59N 37°49' W 122°22'0 0.0
2017-Nov-25 22:26N 37°49' W 122°22'0 0.0
2017-Nov-25 21:59N 37°49' W 122°22'0 0.0
2017-Nov-25 21:26N 37°49' W 122°22'1 1.3
2017-Nov-25 21:00N 37°49' W 122°21'0 0.6
2017-Nov-25 20:31N 37°49' W 122°21'3 6.4
2017-Nov-25 20:01N 37°46' W 122°20'3 6.7
2017-Nov-25 19:31N 37°42' W 122°20'4 7.0
2017-Nov-25 19:00N 37°39' W 122°19'  
Track history (hours):
 
Tides and Currents Weather Stations Pressure Air Temp Water Temp Dewpoint Dewpoint Depression Visibility Wind Speed Wind Dir Waves Ship Positions

Kosmos

Owner: Grab, Eric W, San Diego, CA. More information available from US FCC via Universal Licensing System and Coast Guard Vessel Documentation Center.

Last reported at 2017-Nov-26 22:07 UTC. Time now 2017-Dec-12 00:26 UTC.
Position N 37°37' W 122°18'.
Warning: this ship's position is 15 days out of date.

Length 13 m.

Type: Pleasure craft. MMSI: 367109510.

Date/timePositionNaut miles runAvg speedWind from/ knotsBaromVisibWave heightAir tempDewpointWater temp
2017-Nov-26 22:07N 37°37' W 122°18'1 7.4
2017-Nov-26 22:00N 37°38' W 122°18'4 7.4
2017-Nov-26 21:30N 37°41' W 122°20'4 7.2
2017-Nov-26 21:00N 37°45' W 122°21'3 6.8
2017-Nov-26 20:30N 37°48' W 122°21'1 1.5
2017-Nov-26 19:52N 37°49' W 122°22'0 0.0
2017-Nov-26 19:28N 37°49' W 122°22'0 0.0
2017-Nov-26 18:58N 37°49' W 122°22'0 0.0
2017-Nov-26 18:28N 37°49' W 122°22'0 0.0
2017-Nov-26 17:55N 37°49' W 122°22'0 0.0
2017-Nov-26 17:28N 37°49' W 122°22'0 0.0
2017-Nov-26 16:58N 37°49' W 122°22'0 0.0
2017-Nov-26 16:28N 37°49' W 122°22'0 0.0
2017-Nov-25 23:55N 37°49' W 122°22'0 0.2
2017-Nov-25 23:29N 37°49' W 122°22'0 0.0
2017-Nov-25 22:59N 37°49' W 122°22'0 0.0
2017-Nov-25 22:26N 37°49' W 122°22'0 0.0
2017-Nov-25 21:59N 37°49' W 122°22'0 0.0
2017-Nov-25 21:26N 37°49' W 122°22'1 1.3
2017-Nov-25 21:00N 37°49' W 122°21'0 0.6
2017-Nov-25 20:31N 37°49' W 122°21'3 6.4
2017-Nov-25 20:01N 37°46' W 122°20'3 6.7
2017-Nov-25 19:31N 37°42' W 122°20'4 7.0
2017-Nov-25 19:00N 37°39' W 122°19'  

Dump ship's entire track history